sensor_id;sensor_type;location;lat;lon;timestamp;P1;durP1;ratioP1;P2;durP2;ratioP2
22922;SDS011;11627;51.322;22.816;2023-04-24T00:00:30;10.95;;;5.55;;
22922;SDS011;11627;51.322;22.816;2023-04-24T00:02:56;11.63;;;6.10;;
22922;SDS011;11627;51.322;22.816;2023-04-24T00:05:23;10.77;;;6.30;;
22922;SDS011;11627;51.322;22.816;2023-04-24T00:07:49;18.23;;;5.80;;
22922;SDS011;11627;51.322;22.816;2023-04-24T00:10:17;11.05;;;5.97;;
22922;SDS011;11627;51.322;22.816;2023-04-24T00:12:43;8.27;;;5.65;;
22922;SDS011;11627;51.322;22.816;2023-04-24T00:15:10;10.60;;;6.00;;
22922;SDS011;11627;51.322;22.816;2023-04-24T00:17:36;11.48;;;5.82;;
22922;SDS011;11627;51.322;22.816;2023-04-24T00:20:02;13.75;;;6.20;;
22922;SDS011;11627;51.322;22.816;2023-04-24T00:22:29;9.00;;;5.72;;
22922;SDS011;11627;51.322;22.816;2023-04-24T00:24:56;8.18;;;5.63;;
22922;SDS011;11627;51.322;22.816;2023-04-24T00:27:22;8.32;;;5.63;;
22922;SDS011;11627;51.322;22.816;2023-04-24T00:29:49;9.32;;;6.07;;
22922;SDS011;11627;51.322;22.816;2023-04-24T00:32:15;10.07;;;5.68;;
22922;SDS011;11627;51.322;22.816;2023-04-24T00:34:42;10.43;;;5.90;;
22922;SDS011;11627;51.322;22.816;2023-04-24T00:37:09;11.38;;;6.68;;
22922;SDS011;11627;51.322;22.816;2023-04-24T00:39:36;9.02;;;5.85;;
22922;SDS011;11627;51.322;22.816;2023-04-24T00:42:02;14.98;;;5.72;;
22922;SDS011;11627;51.322;22.816;2023-04-24T00:44:28;9.43;;;5.65;;
22922;SDS011;11627;51.322;22.816;2023-04-24T00:46:55;9.95;;;5.80;;
22922;SDS011;11627;51.322;22.816;2023-04-24T00:49:22;10.35;;;6.07;;
22922;SDS011;11627;51.322;22.816;2023-04-24T00:51:48;10.38;;;5.80;;
22922;SDS011;11627;51.322;22.816;2023-04-24T00:54:15;11.23;;;6.45;;
22922;SDS011;11627;51.322;22.816;2023-04-24T00:56:41;10.93;;;5.75;;
22922;SDS011;11627;51.322;22.816;2023-04-24T00:59:08;10.45;;;5.80;;
22922;SDS011;11627;51.322;22.816;2023-04-24T01:01:36;10.13;;;6.30;;
22922;SDS011;11627;51.322;22.816;2023-04-24T01:04:08;9.23;;;5.75;;
22922;SDS011;11627;51.322;22.816;2023-04-24T01:06:35;8.95;;;6.00;;
22922;SDS011;11627;51.322;22.816;2023-04-24T01:09:05;12.35;;;5.90;;
22922;SDS011;11627;51.322;22.816;2023-04-24T01:11:33;8.60;;;6.05;;
22922;SDS011;11627;51.322;22.816;2023-04-24T01:13:59;14.63;;;6.15;;
22922;SDS011;11627;51.322;22.816;2023-04-24T01:16:25;10.13;;;5.65;;
22922;SDS011;11627;51.322;22.816;2023-04-24T01:18:51;9.35;;;6.05;;
22922;SDS011;11627;51.322;22.816;2023-04-24T01:21:17;8.30;;;5.28;;
22922;SDS011;11627;51.322;22.816;2023-04-24T01:23:45;12.18;;;5.80;;
22922;SDS011;11627;51.322;22.816;2023-04-24T01:26:11;10.90;;;5.65;;
22922;SDS011;11627;51.322;22.816;2023-04-24T01:28:38;11.50;;;5.82;;
22922;SDS011;11627;51.322;22.816;2023-04-24T01:31:04;12.65;;;6.25;;
22922;SDS011;11627;51.322;22.816;2023-04-24T01:33:30;12.57;;;6.30;;
22922;SDS011;11627;51.322;22.816;2023-04-24T01:35:56;9.15;;;5.80;;
22922;SDS011;11627;51.322;22.816;2023-04-24T01:38:23;13.00;;;6.18;;
22922;SDS011;11627;51.322;22.816;2023-04-24T01:40:49;8.35;;;5.57;;
22922;SDS011;11627;51.322;22.816;2023-04-24T01:43:16;10.48;;;5.72;;
22922;SDS011;11627;51.322;22.816;2023-04-24T01:45:41;7.03;;;5.13;;
22922;SDS011;11627;51.322;22.816;2023-04-24T01:48:08;9.23;;;5.50;;
22922;SDS011;11627;51.322;22.816;2023-04-24T01:50:34;10.15;;;5.70;;
22922;SDS011;11627;51.322;22.816;2023-04-24T01:53:00;10.00;;;5.60;;
22922;SDS011;11627;51.322;22.816;2023-04-24T01:55:26;9.07;;;5.55;;
22922;SDS011;11627;51.322;22.816;2023-04-24T01:57:52;8.05;;;5.45;;
22922;SDS011;11627;51.322;22.816;2023-04-24T02:00:20;8.60;;;5.40;;
22922;SDS011;11627;51.322;22.816;2023-04-24T02:02:46;9.10;;;5.47;;
22922;SDS011;11627;51.322;22.816;2023-04-24T02:05:12;9.13;;;5.57;;
22922;SDS011;11627;51.322;22.816;2023-04-24T02:07:37;11.60;;;6.32;;
22922;SDS011;11627;51.322;22.816;2023-04-24T02:10:03;7.22;;;5.47;;
22922;SDS011;11627;51.322;22.816;2023-04-24T02:12:30;10.02;;;6.13;;
22922;SDS011;11627;51.322;22.816;2023-04-24T02:14:56;10.30;;;5.72;;
22922;SDS011;11627;51.322;22.816;2023-04-24T02:17:22;11.85;;;5.72;;
22922;SDS011;11627;51.322;22.816;2023-04-24T02:19:48;10.40;;;6.07;;
22922;SDS011;11627;51.322;22.816;2023-04-24T02:22:14;9.77;;;5.53;;
22922;SDS011;11627;51.322;22.816;2023-04-24T02:24:39;10.77;;;5.13;;
22922;SDS011;11627;51.322;22.816;2023-04-24T02:27:06;9.32;;;5.65;;
22922;SDS011;11627;51.322;22.816;2023-04-24T02:29:33;12.23;;;5.80;;
22922;SDS011;11627;51.322;22.816;2023-04-24T02:31:59;9.23;;;5.60;;
22922;SDS011;11627;51.322;22.816;2023-04-24T02:34:25;8.93;;;5.70;;
22922;SDS011;11627;51.322;22.816;2023-04-24T02:36:50;7.72;;;5.20;;
22922;SDS011;11627;51.322;22.816;2023-04-24T02:39:18;10.27;;;5.20;;
22922;SDS011;11627;51.322;22.816;2023-04-24T02:41:44;10.98;;;5.90;;
22922;SDS011;11627;51.322;22.816;2023-04-24T02:44:11;10.60;;;5.32;;
22922;SDS011;11627;51.322;22.816;2023-04-24T02:46:37;10.00;;;5.78;;
22922;SDS011;11627;51.322;22.816;2023-04-24T02:49:06;9.20;;;5.32;;
22922;SDS011;11627;51.322;22.816;2023-04-24T02:51:32;7.63;;;5.38;;
22922;SDS011;11627;51.322;22.816;2023-04-24T02:53:58;10.48;;;5.90;;
22922;SDS011;11627;51.322;22.816;2023-04-24T02:56:23;10.88;;;5.75;;
22922;SDS011;11627;51.322;22.816;2023-04-24T02:58:49;7.65;;;5.30;;
22922;SDS011;11627;51.322;22.816;2023-04-24T03:01:15;10.32;;;5.38;;
22922;SDS011;11627;51.322;22.816;2023-04-24T03:03:40;8.43;;;5.22;;
22922;SDS011;11627;51.322;22.816;2023-04-24T03:06:06;8.77;;;5.57;;
22922;SDS011;11627;51.322;22.816;2023-04-24T03:08:33;11.63;;;5.22;;
22922;SDS011;11627;51.322;22.816;2023-04-24T03:11:00;9.18;;;5.25;;
22922;SDS011;11627;51.322;22.816;2023-04-24T03:13:26;10.00;;;4.97;;
22922;SDS011;11627;51.322;22.816;2023-04-24T03:15:51;10.40;;;5.65;;
22922;SDS011;11627;51.322;22.816;2023-04-24T03:18:19;10.32;;;5.55;;
22922;SDS011;11627;51.322;22.816;2023-04-24T03:20:45;9.15;;;5.05;;
22922;SDS011;11627;51.322;22.816;2023-04-24T03:23:12;9.27;;;5.28;;
22922;SDS011;11627;51.322;22.816;2023-04-24T03:25:38;9.52;;;5.80;;
22922;SDS011;11627;51.322;22.816;2023-04-24T03:28:03;11.23;;;6.30;;
22922;SDS011;11627;51.322;22.816;2023-04-24T03:30:29;8.10;;;5.30;;
22922;SDS011;11627;51.322;22.816;2023-04-24T03:32:55;10.48;;;5.85;;
22922;SDS011;11627;51.322;22.816;2023-04-24T03:35:22;10.88;;;5.38;;
22922;SDS011;11627;51.322;22.816;2023-04-24T03:37:48;11.07;;;5.30;;
22922;SDS011;11627;51.322;22.816;2023-04-24T03:40:13;6.95;;;5.32;;
22922;SDS011;11627;51.322;22.816;2023-04-24T03:42:39;6.65;;;4.70;;
22922;SDS011;11627;51.322;22.816;2023-04-24T03:45:05;9.60;;;5.07;;
22922;SDS011;11627;51.322;22.816;2023-04-24T03:47:31;7.13;;;5.28;;
22922;SDS011;11627;51.322;22.816;2023-04-24T03:49:58;9.18;;;5.80;;
22922;SDS011;11627;51.322;22.816;2023-04-24T03:52:25;8.23;;;4.97;;
22922;SDS011;11627;51.322;22.816;2023-04-24T03:54:52;7.88;;;5.32;;
22922;SDS011;11627;51.322;22.816;2023-04-24T03:57:21;8.60;;;5.63;;
22922;SDS011;11627;51.322;22.816;2023-04-24T03:59:47;10.43;;;5.53;;
22922;SDS011;11627;51.322;22.816;2023-04-24T04:02:13;7.57;;;5.40;;
22922;SDS011;11627;51.322;22.816;2023-04-24T04:04:38;9.52;;;5.80;;
22922;SDS011;11627;51.322;22.816;2023-04-24T04:07:04;11.02;;;5.90;;
22922;SDS011;11627;51.322;22.816;2023-04-24T04:09:31;10.07;;;5.78;;
22922;SDS011;11627;51.322;22.816;2023-04-24T04:11:58;10.65;;;6.60;;
22922;SDS011;11627;51.322;22.816;2023-04-24T04:14:25;10.77;;;6.28;;
22922;SDS011;11627;51.322;22.816;2023-04-24T04:16:52;10.27;;;6.30;;
22922;SDS011;11627;51.322;22.816;2023-04-24T04:19:17;12.32;;;7.18;;
22922;SDS011;11627;51.322;22.816;2023-04-24T04:21:43;11.73;;;7.05;;
22922;SDS011;11627;51.322;22.816;2023-04-24T04:24:11;11.82;;;7.22;;
22922;SDS011;11627;51.322;22.816;2023-04-24T04:26:37;12.23;;;6.50;;
22922;SDS011;11627;51.322;22.816;2023-04-24T04:29:06;9.32;;;5.85;;
22922;SDS011;11627;51.322;22.816;2023-04-24T04:31:33;11.77;;;6.45;;
22922;SDS011;11627;51.322;22.816;2023-04-24T04:33:59;9.68;;;6.35;;
22922;SDS011;11627;51.322;22.816;2023-04-24T04:36:26;13.20;;;6.25;;
22922;SDS011;11627;51.322;22.816;2023-04-24T04:38:54;11.93;;;6.63;;
22922;SDS011;11627;51.322;22.816;2023-04-24T04:41:20;8.45;;;5.90;;
22922;SDS011;11627;51.322;22.816;2023-04-24T04:43:47;10.93;;;6.10;;
22922;SDS011;11627;51.322;22.816;2023-04-24T04:46:15;10.70;;;6.40;;
22922;SDS011;11627;51.322;22.816;2023-04-24T04:48:41;9.82;;;6.22;;
22922;SDS011;11627;51.322;22.816;2023-04-24T04:51:07;9.60;;;5.93;;
22922;SDS011;11627;51.322;22.816;2023-04-24T04:53:32;10.95;;;6.30;;
22922;SDS011;11627;51.322;22.816;2023-04-24T04:55:58;10.55;;;6.20;;
22922;SDS011;11627;51.322;22.816;2023-04-24T04:58:25;9.13;;;6.10;;
22922;SDS011;11627;51.322;22.816;2023-04-24T05:00:52;11.02;;;6.45;;
22922;SDS011;11627;51.322;22.816;2023-04-24T05:03:19;11.45;;;6.40;;
22922;SDS011;11627;51.322;22.816;2023-04-24T05:05:45;12.93;;;6.22;;
22922;SDS011;11627;51.322;22.816;2023-04-24T05:08:11;9.02;;;5.85;;
22922;SDS011;11627;51.322;22.816;2023-04-24T05:10:38;10.15;;;5.93;;
22922;SDS011;11627;51.322;22.816;2023-04-24T05:13:03;9.88;;;6.28;;
22922;SDS011;11627;51.322;22.816;2023-04-24T05:15:29;11.13;;;6.20;;
22922;SDS011;11627;51.322;22.816;2023-04-24T05:17:55;17.60;;;6.28;;
22922;SDS011;11627;51.322;22.816;2023-04-24T05:20:21;11.40;;;6.80;;
22922;SDS011;11627;51.322;22.816;2023-04-24T05:22:47;10.05;;;6.28;;
22922;SDS011;11627;51.322;22.816;2023-04-24T05:25:13;13.63;;;6.85;;
22922;SDS011;11627;51.322;22.816;2023-04-24T05:27:38;14.00;;;6.30;;
22922;SDS011;11627;51.322;22.816;2023-04-24T05:30:05;10.32;;;5.70;;
22922;SDS011;11627;51.322;22.816;2023-04-24T05:32:31;13.25;;;6.38;;
22922;SDS011;11627;51.322;22.816;2023-04-24T05:34:58;9.65;;;6.00;;
22922;SDS011;11627;51.322;22.816;2023-04-24T05:37:24;12.55;;;5.88;;
22922;SDS011;11627;51.322;22.816;2023-04-24T05:39:50;7.60;;;6.10;;
22922;SDS011;11627;51.322;22.816;2023-04-24T05:42:16;8.63;;;6.25;;
22922;SDS011;11627;51.322;22.816;2023-04-24T05:44:42;12.90;;;6.85;;
22922;SDS011;11627;51.322;22.816;2023-04-24T05:47:09;14.73;;;8.00;;
22922;SDS011;11627;51.322;22.816;2023-04-24T05:49:36;15.98;;;7.45;;
22922;SDS011;11627;51.322;22.816;2023-04-24T05:52:02;13.38;;;6.82;;
22922;SDS011;11627;51.322;22.816;2023-04-24T05:54:29;11.77;;;7.35;;
22922;SDS011;11627;51.322;22.816;2023-04-24T05:56:54;9.32;;;6.40;;
22922;SDS011;11627;51.322;22.816;2023-04-24T05:59:20;9.30;;;6.38;;
22922;SDS011;11627;51.322;22.816;2023-04-24T06:01:46;9.35;;;6.25;;
22922;SDS011;11627;51.322;22.816;2023-04-24T06:04:13;9.75;;;6.30;;
22922;SDS011;11627;51.322;22.816;2023-04-24T06:06:39;11.95;;;6.50;;
22922;SDS011;11627;51.322;22.816;2023-04-24T06:09:05;12.25;;;6.38;;
22922;SDS011;11627;51.322;22.816;2023-04-24T06:11:31;11.45;;;6.30;;
22922;SDS011;11627;51.322;22.816;2023-04-24T06:13:57;10.40;;;6.40;;
22922;SDS011;11627;51.322;22.816;2023-04-24T06:16:23;10.68;;;6.13;;
22922;SDS011;11627;51.322;22.816;2023-04-24T06:18:49;8.77;;;6.10;;
22922;SDS011;11627;51.322;22.816;2023-04-24T06:21:15;9.63;;;5.80;;
22922;SDS011;11627;51.322;22.816;2023-04-24T06:23:41;9.75;;;6.13;;
22922;SDS011;11627;51.322;22.816;2023-04-24T06:26:07;8.88;;;5.85;;
22922;SDS011;11627;51.322;22.816;2023-04-24T06:28:33;8.02;;;5.93;;
22922;SDS011;11627;51.322;22.816;2023-04-24T06:30:59;9.57;;;6.55;;
22922;SDS011;11627;51.322;22.816;2023-04-24T06:33:25;9.95;;;6.40;;
22922;SDS011;11627;51.322;22.816;2023-04-24T06:35:52;10.75;;;6.43;;
22922;SDS011;11627;51.322;22.816;2023-04-24T06:38:19;10.25;;;6.47;;
22922;SDS011;11627;51.322;22.816;2023-04-24T06:40:46;9.88;;;6.10;;
22922;SDS011;11627;51.322;22.816;2023-04-24T06:43:12;9.13;;;6.22;;
22922;SDS011;11627;51.322;22.816;2023-04-24T06:45:38;8.40;;;5.93;;
22922;SDS011;11627;51.322;22.816;2023-04-24T06:48:04;9.68;;;6.10;;
22922;SDS011;11627;51.322;22.816;2023-04-24T06:50:30;8.18;;;5.93;;
22922;SDS011;11627;51.322;22.816;2023-04-24T06:52:57;9.15;;;5.82;;
22922;SDS011;11627;51.322;22.816;2023-04-24T06:55:22;8.73;;;6.43;;
22922;SDS011;11627;51.322;22.816;2023-04-24T06:57:48;8.25;;;5.78;;
22922;SDS011;11627;51.322;22.816;2023-04-24T07:00:14;12.90;;;6.45;;
22922;SDS011;11627;51.322;22.816;2023-04-24T07:02:40;14.10;;;6.50;;
22922;SDS011;11627;51.322;22.816;2023-04-24T07:05:10;10.60;;;6.32;;
22922;SDS011;11627;51.322;22.816;2023-04-24T07:07:37;9.85;;;5.95;;
22922;SDS011;11627;51.322;22.816;2023-04-24T07:10:05;8.27;;;6.28;;
22922;SDS011;11627;51.322;22.816;2023-04-24T07:12:31;10.10;;;5.97;;
22922;SDS011;11627;51.322;22.816;2023-04-24T07:14:57;12.25;;;6.78;;
22922;SDS011;11627;51.322;22.816;2023-04-24T07:17:23;15.48;;;5.85;;
22922;SDS011;11627;51.322;22.816;2023-04-24T07:19:49;11.48;;;5.70;;
22922;SDS011;11627;51.322;22.816;2023-04-24T07:22:15;14.18;;;5.95;;
22922;SDS011;11627;51.322;22.816;2023-04-24T07:24:43;9.43;;;6.00;;
22922;SDS011;11627;51.322;22.816;2023-04-24T07:27:09;7.30;;;5.70;;
22922;SDS011;11627;51.322;22.816;2023-04-24T07:29:34;10.23;;;5.72;;
22922;SDS011;11627;51.322;22.816;2023-04-24T07:32:01;8.52;;;6.28;;
22922;SDS011;11627;51.322;22.816;2023-04-24T07:34:28;11.93;;;6.22;;
22922;SDS011;11627;51.322;22.816;2023-04-24T07:36:55;9.43;;;5.32;;
22922;SDS011;11627;51.322;22.816;2023-04-24T07:39:21;7.75;;;5.25;;
22922;SDS011;11627;51.322;22.816;2023-04-24T07:41:46;12.80;;;6.05;;
22922;SDS011;11627;51.322;22.816;2023-04-24T07:44:12;8.32;;;5.35;;
22922;SDS011;11627;51.322;22.816;2023-04-24T07:46:38;7.47;;;5.10;;
22922;SDS011;11627;51.322;22.816;2023-04-24T07:49:04;8.18;;;5.50;;
22922;SDS011;11627;51.322;22.816;2023-04-24T07:51:31;7.28;;;4.93;;
22922;SDS011;11627;51.322;22.816;2023-04-24T07:54:05;6.88;;;4.93;;
22922;SDS011;11627;51.322;22.816;2023-04-24T07:56:31;8.80;;;5.13;;
22922;SDS011;11627;51.322;22.816;2023-04-24T07:58:59;10.73;;;5.53;;
22922;SDS011;11627;51.322;22.816;2023-04-24T08:01:26;6.35;;;4.85;;
22922;SDS011;11627;51.322;22.816;2023-04-24T08:03:52;7.97;;;5.38;;
22922;SDS011;11627;51.322;22.816;2023-04-24T08:06:18;8.30;;;5.50;;
22922;SDS011;11627;51.322;22.816;2023-04-24T08:08:43;10.85;;;5.63;;
22922;SDS011;11627;51.322;22.816;2023-04-24T08:11:09;12.18;;;5.55;;
22922;SDS011;11627;51.322;22.816;2023-04-24T08:13:35;8.15;;;5.30;;
22922;SDS011;11627;51.322;22.816;2023-04-24T08:16:01;8.95;;;5.35;;
22922;SDS011;11627;51.322;22.816;2023-04-24T08:18:28;8.38;;;5.10;;
22922;SDS011;11627;51.322;22.816;2023-04-24T08:20:53;7.35;;;5.03;;
22922;SDS011;11627;51.322;22.816;2023-04-24T08:23:21;9.43;;;5.18;;
22922;SDS011;11627;51.322;22.816;2023-04-24T08:25:48;7.30;;;5.63;;
22922;SDS011;11627;51.322;22.816;2023-04-24T08:28:14;14.02;;;4.90;;
22922;SDS011;11627;51.322;22.816;2023-04-24T08:30:46;8.45;;;5.05;;
22922;SDS011;11627;51.322;22.816;2023-04-24T08:33:13;8.95;;;5.00;;
22922;SDS011;11627;51.322;22.816;2023-04-24T08:35:40;12.00;;;6.63;;
22922;SDS011;11627;51.322;22.816;2023-04-24T08:38:06;7.70;;;5.07;;
22922;SDS011;11627;51.322;22.816;2023-04-24T08:40:33;8.45;;;5.10;;
22922;SDS011;11627;51.322;22.816;2023-04-24T08:43:00;7.65;;;5.13;;
22922;SDS011;11627;51.322;22.816;2023-04-24T08:45:27;8.65;;;5.40;;
22922;SDS011;11627;51.322;22.816;2023-04-24T08:47:54;8.05;;;4.97;;
22922;SDS011;11627;51.322;22.816;2023-04-24T08:50:21;8.27;;;5.22;;
22922;SDS011;11627;51.322;22.816;2023-04-24T08:52:49;9.25;;;5.40;;
22922;SDS011;11627;51.322;22.816;2023-04-24T08:55:18;10.52;;;5.35;;
22922;SDS011;11627;51.322;22.816;2023-04-24T08:57:50;8.27;;;5.00;;
22922;SDS011;11627;51.322;22.816;2023-04-24T09:00:18;10.90;;;5.95;;
22922;SDS011;11627;51.322;22.816;2023-04-24T09:02:48;8.25;;;5.35;;
22922;SDS011;11627;51.322;22.816;2023-04-24T09:05:16;10.05;;;5.22;;
22922;SDS011;11627;51.322;22.816;2023-04-24T09:07:45;8.23;;;4.90;;
22922;SDS011;11627;51.322;22.816;2023-04-24T09:10:14;8.98;;;5.50;;
22922;SDS011;11627;51.322;22.816;2023-04-24T09:12:41;8.43;;;6.28;;
22922;SDS011;11627;51.322;22.816;2023-04-24T09:15:07;7.97;;;6.10;;
22922;SDS011;11627;51.322;22.816;2023-04-24T09:17:34;8.57;;;5.20;;
22922;SDS011;11627;51.322;22.816;2023-04-24T09:20:00;12.65;;;6.80;;
22922;SDS011;11627;51.322;22.816;2023-04-24T09:22:29;11.35;;;7.43;;
22922;SDS011;11627;51.322;22.816;2023-04-24T09:25:04;8.63;;;5.18;;
22922;SDS011;11627;51.322;22.816;2023-04-24T09:27:35;6.63;;;5.55;;
22922;SDS011;11627;51.322;22.816;2023-04-24T09:30:02;7.38;;;5.10;;
22922;SDS011;11627;51.322;22.816;2023-04-24T09:32:29;8.38;;;5.30;;
22922;SDS011;11627;51.322;22.816;2023-04-24T09:35:10;8.30;;;5.53;;
22922;SDS011;11627;51.322;22.816;2023-04-24T09:37:54;7.05;;;5.30;;
22922;SDS011;11627;51.322;22.816;2023-04-24T09:40:23;9.05;;;4.85;;
22922;SDS011;11627;51.322;22.816;2023-04-24T09:42:52;9.27;;;4.78;;
22922;SDS011;11627;51.322;22.816;2023-04-24T09:45:43;8.43;;;5.13;;
22922;SDS011;11627;51.322;22.816;2023-04-24T09:48:09;6.18;;;5.15;;
22922;SDS011;11627;51.322;22.816;2023-04-24T09:50:35;7.82;;;4.93;;
22922;SDS011;11627;51.322;22.816;2023-04-24T09:53:02;8.48;;;4.50;;
22922;SDS011;11627;51.322;22.816;2023-04-24T09:55:30;8.50;;;5.13;;
22922;SDS011;11627;51.322;22.816;2023-04-24T09:58:00;7.78;;;5.03;;
22922;SDS011;11627;51.322;22.816;2023-04-24T10:00:31;10.05;;;5.38;;
22922;SDS011;11627;51.322;22.816;2023-04-24T10:05:29;7.55;;;4.78;;
22922;SDS011;11627;51.322;22.816;2023-04-24T10:07:58;8.50;;;5.10;;
22922;SDS011;11627;51.322;22.816;2023-04-24T10:10:34;8.40;;;5.20;;
22922;SDS011;11627;51.322;22.816;2023-04-24T10:13:03;8.88;;;5.20;;
22922;SDS011;11627;51.322;22.816;2023-04-24T10:15:30;7.68;;;4.68;;
22922;SDS011;11627;51.322;22.816;2023-04-24T10:17:59;7.13;;;4.55;;
22922;SDS011;11627;51.322;22.816;2023-04-24T10:20:27;5.93;;;5.10;;
22922;SDS011;11627;51.322;22.816;2023-04-24T10:22:58;5.68;;;4.72;;
22922;SDS011;11627;51.322;22.816;2023-04-24T10:25:26;11.10;;;5.07;;
22922;SDS011;11627;51.322;22.816;2023-04-24T10:27:55;7.65;;;5.13;;
22922;SDS011;11627;51.322;22.816;2023-04-24T10:30:25;5.40;;;4.65;;
22922;SDS011;11627;51.322;22.816;2023-04-24T10:32:54;6.43;;;4.43;;
22922;SDS011;11627;51.322;22.816;2023-04-24T10:35:20;12.05;;;5.00;;
22922;SDS011;11627;51.322;22.816;2023-04-24T10:37:51;10.45;;;4.85;;
22922;SDS011;11627;51.322;22.816;2023-04-24T10:40:31;10.40;;;4.30;;
22922;SDS011;11627;51.322;22.816;2023-04-24T10:43:03;8.27;;;4.53;;
22922;SDS011;11627;51.322;22.816;2023-04-24T10:45:42;9.23;;;4.60;;
22922;SDS011;11627;51.322;22.816;2023-04-24T10:48:30;7.03;;;4.65;;
22922;SDS011;11627;51.322;22.816;2023-04-24T10:50:58;5.97;;;4.35;;
22922;SDS011;11627;51.322;22.816;2023-04-24T10:53:27;6.45;;;4.70;;
22922;SDS011;11627;51.322;22.816;2023-04-24T10:56:08;12.10;;;5.00;;
22922;SDS011;11627;51.322;22.816;2023-04-24T10:58:41;7.10;;;4.85;;
22922;SDS011;11627;51.322;22.816;2023-04-24T11:01:30;6.65;;;4.43;;
22922;SDS011;11627;51.322;22.816;2023-04-24T11:04:01;7.00;;;4.40;;
22922;SDS011;11627;51.322;22.816;2023-04-24T11:06:32;9.18;;;4.43;;
22922;SDS011;11627;51.322;22.816;2023-04-24T11:09:06;7.47;;;5.18;;
22922;SDS011;11627;51.322;22.816;2023-04-24T11:11:35;8.55;;;4.55;;
22922;SDS011;11627;51.322;22.816;2023-04-24T11:14:06;6.53;;;4.50;;
22922;SDS011;11627;51.322;22.816;2023-04-24T11:19:24;5.20;;;4.20;;
22922;SDS011;11627;51.322;22.816;2023-04-24T11:21:54;5.25;;;4.65;;
22922;SDS011;11627;51.322;22.816;2023-04-24T11:27:13;5.47;;;4.18;;
22922;SDS011;11627;51.322;22.816;2023-04-24T11:29:58;6.90;;;4.18;;
22922;SDS011;11627;51.322;22.816;2023-04-24T11:32:46;4.43;;;3.80;;
22922;SDS011;11627;51.322;22.816;2023-04-24T11:35:20;7.47;;;4.63;;
22922;SDS011;11627;51.322;22.816;2023-04-24T11:37:52;5.35;;;4.25;;
22922;SDS011;11627;51.322;22.816;2023-04-24T11:40:20;6.53;;;4.47;;
22922;SDS011;11627;51.322;22.816;2023-04-24T11:42:52;6.45;;;4.90;;
22922;SDS011;11627;51.322;22.816;2023-04-24T11:45:22;8.57;;;4.50;;
22922;SDS011;11627;51.322;22.816;2023-04-24T11:47:48;8.13;;;4.60;;
22922;SDS011;11627;51.322;22.816;2023-04-24T11:50:16;4.55;;;4.00;;
22922;SDS011;11627;51.322;22.816;2023-04-24T11:52:44;5.55;;;4.28;;
22922;SDS011;11627;51.322;22.816;2023-04-24T11:57:59;5.18;;;4.32;;
22922;SDS011;11627;51.322;22.816;2023-04-24T12:00:30;5.82;;;4.53;;
22922;SDS011;11627;51.322;22.816;2023-04-24T12:03:11;6.07;;;4.40;;
22922;SDS011;11627;51.322;22.816;2023-04-24T12:05:38;5.00;;;3.92;;
22922;SDS011;11627;51.322;22.816;2023-04-24T12:08:06;5.40;;;3.83;;
22922;SDS011;11627;51.322;22.816;2023-04-24T12:10:32;5.47;;;3.47;;
22922;SDS011;11627;51.322;22.816;2023-04-24T12:13:00;6.82;;;4.40;;
22922;SDS011;11627;51.322;22.816;2023-04-24T12:15:27;6.03;;;4.07;;
22922;SDS011;11627;51.322;22.816;2023-04-24T12:17:54;4.88;;;4.18;;
22922;SDS011;11627;51.322;22.816;2023-04-24T12:20:29;6.30;;;4.15;;
22922;SDS011;11627;51.322;22.816;2023-04-24T12:23:00;6.85;;;4.30;;
22922;SDS011;11627;51.322;22.816;2023-04-24T12:25:28;5.47;;;4.40;;
22922;SDS011;11627;51.322;22.816;2023-04-24T12:28:09;6.90;;;4.93;;
22922;SDS011;11627;51.322;22.816;2023-04-24T12:31:09;6.30;;;4.30;;
22922;SDS011;11627;51.322;22.816;2023-04-24T12:33:32;6.68;;;4.30;;
22922;SDS011;11627;51.322;22.816;2023-04-24T12:36:00;5.07;;;4.40;;
22922;SDS011;11627;51.322;22.816;2023-04-24T12:38:27;8.13;;;4.13;;
22922;SDS011;11627;51.322;22.816;2023-04-24T12:41:05;6.82;;;4.13;;
22922;SDS011;11627;51.322;22.816;2023-04-24T12:43:33;11.85;;;4.32;;
22922;SDS011;11627;51.322;22.816;2023-04-24T12:46:01;7.15;;;4.63;;
22922;SDS011;11627;51.322;22.816;2023-04-24T12:48:27;7.53;;;4.10;;
22922;SDS011;11627;51.322;22.816;2023-04-24T12:50:54;7.45;;;4.40;;
22922;SDS011;11627;51.322;22.816;2023-04-24T12:53:22;6.25;;;4.20;;
22922;SDS011;11627;51.322;22.816;2023-04-24T12:55:47;4.78;;;4.05;;
22922;SDS011;11627;51.322;22.816;2023-04-24T12:58:19;7.82;;;4.03;;
22922;SDS011;11627;51.322;22.816;2023-04-24T13:00:46;7.75;;;4.38;;
22922;SDS011;11627;51.322;22.816;2023-04-24T13:03:13;6.15;;;4.20;;
22922;SDS011;11627;51.322;22.816;2023-04-24T13:05:39;5.95;;;4.22;;
22922;SDS011;11627;51.322;22.816;2023-04-24T13:08:06;5.63;;;4.07;;
22922;SDS011;11627;51.322;22.816;2023-04-24T13:10:33;5.40;;;4.10;;
22922;SDS011;11627;51.322;22.816;2023-04-24T13:13:03;4.97;;;4.05;;
22922;SDS011;11627;51.322;22.816;2023-04-24T13:15:30;6.28;;;4.20;;
22922;SDS011;11627;51.322;22.816;2023-04-24T13:17:56;7.03;;;4.25;;
22922;SDS011;11627;51.322;22.816;2023-04-24T13:20:22;6.25;;;3.92;;
22922;SDS011;11627;51.322;22.816;2023-04-24T13:22:47;7.47;;;4.05;;
22922;SDS011;11627;51.322;22.816;2023-04-24T13:25:13;4.97;;;4.15;;
22922;SDS011;11627;51.322;22.816;2023-04-24T13:27:41;5.05;;;3.78;;
22922;SDS011;11627;51.322;22.816;2023-04-24T13:30:09;9.73;;;4.32;;
22922;SDS011;11627;51.322;22.816;2023-04-24T13:32:35;6.35;;;3.90;;
22922;SDS011;11627;51.322;22.816;2023-04-24T13:35:02;5.00;;;3.83;;
22922;SDS011;11627;51.322;22.816;2023-04-24T13:37:28;6.35;;;4.05;;
22922;SDS011;11627;51.322;22.816;2023-04-24T13:39:53;8.35;;;4.38;;
22922;SDS011;11627;51.322;22.816;2023-04-24T13:42:19;9.20;;;4.20;;
22922;SDS011;11627;51.322;22.816;2023-04-24T13:44:45;6.47;;;4.38;;
22922;SDS011;11627;51.322;22.816;2023-04-24T13:47:12;5.75;;;3.70;;
22922;SDS011;11627;51.322;22.816;2023-04-24T13:49:38;4.95;;;3.60;;
22922;SDS011;11627;51.322;22.816;2023-04-24T13:52:05;9.90;;;4.28;;
22922;SDS011;11627;51.322;22.816;2023-04-24T13:54:32;4.55;;;3.90;;
22922;SDS011;11627;51.322;22.816;2023-04-24T13:56:59;4.05;;;3.47;;
22922;SDS011;11627;51.322;22.816;2023-04-24T13:59:26;4.30;;;3.67;;
22922;SDS011;11627;51.322;22.816;2023-04-24T14:01:52;5.47;;;3.58;;
22922;SDS011;11627;51.322;22.816;2023-04-24T14:04:17;6.32;;;3.78;;
22922;SDS011;11627;51.322;22.816;2023-04-24T14:06:45;7.13;;;3.63;;
22922;SDS011;11627;51.322;22.816;2023-04-24T14:09:12;6.85;;;3.88;;
22922;SDS011;11627;51.322;22.816;2023-04-24T14:11:37;8.88;;;4.82;;
22922;SDS011;11627;51.322;22.816;2023-04-24T14:14:03;7.40;;;4.30;;
22922;SDS011;11627;51.322;22.816;2023-04-24T14:16:31;7.85;;;4.00;;
22922;SDS011;11627;51.322;22.816;2023-04-24T14:18:56;6.80;;;4.00;;
22922;SDS011;11627;51.322;22.816;2023-04-24T14:21:24;10.25;;;3.67;;
22922;SDS011;11627;51.322;22.816;2023-04-24T14:23:50;6.07;;;3.72;;
22922;SDS011;11627;51.322;22.816;2023-04-24T14:26:19;5.90;;;3.72;;
22922;SDS011;11627;51.322;22.816;2023-04-24T14:28:44;7.97;;;4.00;;
22922;SDS011;11627;51.322;22.816;2023-04-24T14:31:11;4.03;;;3.47;;
22922;SDS011;11627;51.322;22.816;2023-04-24T14:33:37;17.92;;;7.30;;
22922;SDS011;11627;51.322;22.816;2023-04-24T14:36:04;8.82;;;4.70;;
22922;SDS011;11627;51.322;22.816;2023-04-24T14:38:31;7.75;;;4.05;;
22922;SDS011;11627;51.322;22.816;2023-04-24T14:41:01;5.72;;;4.15;;
22922;SDS011;11627;51.322;22.816;2023-04-24T14:43:33;6.18;;;3.83;;